Time;durP1;ratioP1;P1;durP2;ratioP2;P2;SDS_P1;SDS_P2;PMS_P1;PMS_P2;Temp;Humidity;BMP_temperature;BMP_pressure;BME280_temperature;BME280_humidity;BME280_pressure;Samples;Min_cycle;Max_cycle;Signal;HPM_P1;HPM_P2
2021/05/20 00:00:00;;;;;;;5.93;1.65;;;9.60;99.90;;;;;;4966005;28;20124;-64
2021/05/20 00:02:26;;;;;;;5.88;2.00;;;9.60;99.90;;;;;;4965728;28;20439;-64
2021/05/20 00:04:52;;;;;;;11.15;2.30;;;9.60;99.90;;;;;;4964245;28;20299;-65
2021/05/20 00:07:18;;;;;;;4.65;1.20;;;9.60;99.90;;;;;;4966980;28;20153;-64
2021/05/20 00:09:44;;;;;;;6.55;1.50;;;9.60;99.90;;;;;;4966286;28;20066;-64
2021/05/20 00:12:12;;;;;;;3.97;1.40;;;9.50;99.90;;;;;;4969852;28;20039;-63
2021/05/20 00:14:38;;;;;;;5.47;1.50;;;9.60;99.90;;;;;;4969110;28;20027;-64
2021/05/20 00:17:04;;;;;;;7.82;1.30;;;9.60;99.90;;;;;;4969827;28;20054;-64
2021/05/20 00:19:30;;;;;;;4.88;1.25;;;9.50;99.90;;;;;;4970062;28;20564;-64
2021/05/20 00:21:55;;;;;;;8.65;1.50;;;9.50;99.90;;;;;;4969881;28;20474;-64
2021/05/20 00:24:21;;;;;;;9.68;1.90;;;9.50;99.90;;;;;;4970070;28;20519;-64
2021/05/20 00:26:47;;;;;;;7.68;1.60;;;9.50;99.90;;;;;;4970341;28;20041;-63
2021/05/20 00:29:13;;;;;;;9.27;1.60;;;9.50;99.90;;;;;;4970222;28;20610;-66
2021/05/20 00:31:38;;;;;;;8.90;1.63;;;9.50;99.90;;;;;;4970022;28;20061;-63
2021/05/20 00:34:05;;;;;;;7.03;1.38;;;9.50;99.90;;;;;;4968728;28;20074;-64
2021/05/20 00:36:32;;;;;;;5.60;1.33;;;9.50;99.90;;;;;;4969699;28;20549;-64
2021/05/20 00:38:58;;;;;;;5.95;1.30;;;9.50;99.90;;;;;;4967006;28;20080;-64
2021/05/20 00:41:24;;;;;;;5.72;1.65;;;9.40;99.90;;;;;;4970127;28;20047;-64
2021/05/20 00:43:50;;;;;;;7.43;1.90;;;9.40;99.90;;;;;;4969392;28;20031;-64
2021/05/20 00:46:16;;;;;;;11.32;1.85;;;9.50;99.90;;;;;;4969243;28;20028;-64
2021/05/20 00:48:42;;;;;;;6.50;2.20;;;9.50;99.90;;;;;;4969247;28;20025;-63
2021/05/20 00:51:08;;;;;;;10.23;2.17;;;9.50;99.90;;;;;;4966959;28;20042;-64
2021/05/20 00:53:35;;;;;;;6.28;1.85;;;9.50;99.90;;;;;;4969819;28;20046;-64
2021/05/20 00:56:01;;;;;;;10.82;2.20;;;9.50;99.90;;;;;;4968125;28;20035;-64
2021/05/20 00:58:27;;;;;;;12.50;2.63;;;9.60;99.90;;;;;;4969628;28;20022;-64
2021/05/20 01:00:54;;;;;;;11.07;2.63;;;9.60;99.90;;;;;;4968397;28;20082;-63
2021/05/20 01:03:21;;;;;;;9.57;2.40;;;9.60;99.90;;;;;;4969905;28;20038;-63
2021/05/20 01:05:48;;;;;;;10.98;3.50;;;9.60;99.90;;;;;;4968417;28;20037;-63
2021/05/20 01:08:14;;;;;;;9.55;2.25;;;9.60;99.90;;;;;;4969416;28;20424;-64
2021/05/20 01:10:40;;;;;;;11.10;3.72;;;9.60;99.90;;;;;;4968572;28;20015;-63
2021/05/20 01:13:06;;;;;;;9.98;2.15;;;9.50;99.90;;;;;;4969386;28;20031;-64
2021/05/20 01:15:32;;;;;;;15.10;2.88;;;9.50;99.90;;;;;;4969695;28;20031;-64
2021/05/20 01:18:04;;;;;;;11.70;2.90;;;9.50;99.90;;;;;;4970536;28;20053;-64
2021/05/20 01:20:33;;;;;;;11.40;2.50;;;9.60;99.90;;;;;;4969600;28;20049;-63
2021/05/20 01:23:14;;;;;;;6.35;2.42;;;9.50;99.90;;;;;;4969088;28;20491;-63
2021/05/20 01:25:45;;;;;;;8.65;1.95;;;9.50;99.90;;;;;;4969558;28;20034;-63
2021/05/20 01:28:16;;;;;;;13.43;2.95;;;9.50;99.90;;;;;;4969092;28;20023;-64
2021/05/20 01:30:44;;;;;;;12.02;2.85;;;9.40;99.90;;;;;;4966667;28;20059;-64
2021/05/20 01:33:10;;;;;;;20.25;2.97;;;9.40;99.90;;;;;;4970184;28;20106;-63
2021/05/20 01:35:37;;;;;;;12.50;3.80;;;9.40;99.90;;;;;;4966300;28;20041;-64
2021/05/20 01:40:55;;;;;;;23.52;3.03;;;9.40;99.90;;;;;;4968284;28;20153;-64
2021/05/20 01:43:22;;;;;;;11.00;2.63;;;9.40;99.90;;;;;;4969150;28;20030;-64
2021/05/20 01:45:58;;;;;;;11.85;2.50;;;9.40;99.90;;;;;;4968767;28;20038;-64
2021/05/20 01:48:25;;;;;;;11.95;2.60;;;9.40;99.90;;;;;;4968017;28;20039;-64
2021/05/20 01:50:52;;;;;;;15.23;3.25;;;9.30;99.90;;;;;;4967713;28;20043;-64
2021/05/20 01:53:18;;;;;;;17.30;2.83;;;9.40;99.90;;;;;;4969121;28;20447;-64
2021/05/20 01:55:49;;;;;;;12.40;2.97;;;9.30;99.90;;;;;;4968695;28;20054;-63
2021/05/20 01:58:15;;;;;;;13.05;2.72;;;9.30;99.90;;;;;;4968536;28;20031;-64
2021/05/20 02:00:41;;;;;;;15.55;3.20;;;9.30;99.90;;;;;;4966634;28;20035;-64
2021/05/20 02:03:07;;;;;;;10.25;2.30;;;9.30;99.90;;;;;;4968109;28;20038;-64
2021/05/20 02:05:33;;;;;;;13.02;3.15;;;9.20;99.90;;;;;;4967649;28;20030;-64
2021/05/20 02:07:59;;;;;;;13.98;3.03;;;9.20;99.90;;;;;;4968563;28;20046;-64
2021/05/20 02:10:24;;;;;;;17.45;2.83;;;9.20;99.90;;;;;;4968330;28;20496;-63
2021/05/20 02:12:50;;;;;;;10.77;3.50;;;9.10;99.90;;;;;;4968862;28;20109;-63
2021/05/20 02:15:16;;;;;;;14.73;2.95;;;9.10;99.90;;;;;;4966954;28;20492;-63
2021/05/20 02:17:42;;;;;;;19.67;3.35;;;9.10;99.90;;;;;;4967950;28;20031;-63
2021/05/20 02:20:08;;;;;;;13.98;2.88;;;9.00;99.90;;;;;;4969432;28;20031;-64
2021/05/20 02:22:35;;;;;;;11.68;3.03;;;9.00;99.90;;;;;;4966685;28;20050;-63
2021/05/20 02:25:05;;;;;;;17.10;3.38;;;9.00;99.90;;;;;;4968084;28;20046;-63
2021/05/20 02:27:31;;;;;;;12.57;2.95;;;9.00;99.90;;;;;;4966667;28;20030;-63
2021/05/20 02:29:57;;;;;;;14.07;3.10;;;9.00;99.90;;;;;;4968037;28;20039;-63
2021/05/20 02:32:23;;;;;;;20.35;3.38;;;9.00;99.90;;;;;;4966438;28;20064;-64
2021/05/20 02:34:48;;;;;;;15.57;2.83;;;9.00;99.90;;;;;;4967932;28;20109;-64
2021/05/20 02:37:14;;;;;;;8.88;2.78;;;8.90;99.90;;;;;;4968887;28;20398;-64
2021/05/20 02:39:40;;;;;;;8.40;2.15;;;8.90;99.90;;;;;;4965931;28;20025;-63
2021/05/20 02:42:07;;;;;;;10.77;2.05;;;8.90;99.90;;;;;;4967816;28;20043;-64
2021/05/20 02:44:33;;;;;;;17.42;2.38;;;8.90;99.90;;;;;;4966847;28;20069;-63
2021/05/20 02:46:58;;;;;;;16.02;2.70;;;8.90;99.90;;;;;;4968348;28;20121;-64
2021/05/20 02:49:24;;;;;;;10.60;2.65;;;8.80;99.90;;;;;;4967035;28;20034;-64
2021/05/20 02:51:50;;;;;;;16.70;3.63;;;8.90;99.90;;;;;;4967260;28;20474;-64
2021/05/20 02:54:16;;;;;;;10.48;2.35;;;8.90;99.90;;;;;;4967333;28;20030;-64
2021/05/20 02:56:42;;;;;;;10.98;2.83;;;9.00;99.90;;;;;;4967034;28;20031;-64
2021/05/20 02:59:09;;;;;;;13.15;2.65;;;9.00;99.90;;;;;;4966608;28;20384;-63
2021/05/20 03:01:40;;;;;;;13.95;2.55;;;9.10;99.90;;;;;;4965607;28;20042;-63
2021/05/20 03:04:06;;;;;;;8.45;2.28;;;9.10;99.90;;;;;;4968328;28;20023;-63
2021/05/20 03:06:32;;;;;;;10.95;2.25;;;9.10;99.90;;;;;;4966451;28;20034;-64
2021/05/20 03:08:57;;;;;;;13.02;2.92;;;9.10;99.90;;;;;;4968481;28;20422;-64
2021/05/20 03:11:26;;;;;;;13.05;3.35;;;9.20;99.90;;;;;;4965184;28;20602;-64
2021/05/20 03:13:52;;;;;;;9.60;2.38;;;9.20;99.90;;;;;;4967024;28;20337;-64
2021/05/20 03:16:18;;;;;;;12.60;2.28;;;9.20;99.90;;;;;;4967051;28;20153;-63
2021/05/20 03:18:44;;;;;;;13.20;2.30;;;9.20;99.90;;;;;;4966974;28;20043;-64
2021/05/20 03:21:10;;;;;;;11.40;2.67;;;9.20;99.90;;;;;;4967515;28;20038;-64
2021/05/20 03:23:36;;;;;;;6.18;1.95;;;9.20;99.90;;;;;;4967156;28;20062;-64
2021/05/20 03:26:01;;;;;;;12.55;2.50;;;9.30;99.90;;;;;;4963444;28;20101;-64
2021/05/20 03:28:27;;;;;;;11.70;2.65;;;9.20;99.90;;;;;;4967342;28;20081;-64
2021/05/20 03:30:53;;;;;;;10.88;2.13;;;9.20;99.90;;;;;;4963343;28;20467;-64
2021/05/20 03:33:20;;;;;;;9.02;2.33;;;9.20;99.90;;;;;;4967650;28;20061;-64
2021/05/20 03:35:46;;;;;;;11.02;2.80;;;9.20;99.90;;;;;;4963461;28;20037;-63
2021/05/20 03:38:12;;;;;;;9.57;2.28;;;9.20;99.90;;;;;;4965920;28;20057;-63
2021/05/20 03:40:38;;;;;;;13.68;2.67;;;9.20;99.90;;;;;;4965957;28;20173;-64
2021/05/20 03:43:04;;;;;;;8.63;2.80;;;9.30;99.90;;;;;;4966902;28;20101;-64
2021/05/20 03:45:29;;;;;;;10.45;2.35;;;9.30;99.90;;;;;;4969653;28;20018;-63
2021/05/20 03:47:55;;;;;;;5.57;1.92;;;9.30;99.90;;;;;;4972284;28;20526;-63
2021/05/20 03:50:21;;;;;;;13.60;2.58;;;9.20;99.90;;;;;;4969613;28;20027;-63
2021/05/20 03:52:47;;;;;;;10.70;2.25;;;9.20;99.90;;;;;;4970218;28;20204;-63
2021/05/20 03:55:13;;;;;;;7.43;2.10;;;9.20;99.90;;;;;;4971302;28;20034;-63
2021/05/20 03:57:39;;;;;;;11.65;2.45;;;9.20;99.90;;;;;;4969585;28;20034;-66
2021/05/20 04:00:05;;;;;;;15.90;2.35;;;9.30;99.90;;;;;;4968546;28;20033;-74
2021/05/20 04:02:31;;;;;;;10.30;2.65;;;9.30;99.90;;;;;;4967873;28;20050;-74
2021/05/20 04:04:57;;;;;;;12.30;2.88;;;9.30;99.90;;;;;;4969930;28;20329;-75
2021/05/20 04:07:23;;;;;;;10.52;2.42;;;9.40;99.90;;;;;;4969479;28;20092;-74
2021/05/20 04:09:49;;;;;;;8.10;2.05;;;9.40;99.90;;;;;;4971019;28;20037;-75
2021/05/20 04:12:15;;;;;;;10.98;2.40;;;9.40;99.90;;;;;;4969189;28;20039;-75
2021/05/20 04:14:41;;;;;;;7.15;2.17;;;9.20;99.90;;;;;;4972273;28;20164;-75
2021/05/20 04:17:06;;;;;;;11.20;2.20;;;9.20;99.90;;;;;;4969612;28;20565;-74
2021/05/20 04:19:32;;;;;;;12.65;1.98;;;9.10;99.90;;;;;;4970291;28;20508;-75
2021/05/20 04:21:58;;;;;;;17.95;3.92;;;9.10;99.90;;;;;;4969884;28;20375;-74
2021/05/20 04:24:26;;;;;;;12.77;2.65;;;9.10;99.90;;;;;;4971962;28;20090;-75
2021/05/20 04:26:53;;;;;;;9.60;2.35;;;9.10;99.90;;;;;;4970084;28;20472;-75
2021/05/20 04:29:19;;;;;;;11.43;2.30;;;9.20;99.90;;;;;;4969656;28;20426;-75
2021/05/20 04:31:45;;;;;;;5.95;1.92;;;9.20;99.90;;;;;;4970946;28;20148;-75
2021/05/20 04:34:11;;;;;;;12.05;2.65;;;9.20;99.90;;;;;;4962501;28;20137;-75
2021/05/20 04:36:37;;;;;;;8.75;2.30;;;9.30;99.90;;;;;;4971990;28;20034;-75
2021/05/20 04:39:04;;;;;;;16.48;2.53;;;9.40;99.90;;;;;;4970467;28;20343;-75
2021/05/20 04:41:31;;;;;;;9.57;1.90;;;9.40;99.90;;;;;;4970205;28;20030;-76
2021/05/20 04:43:58;;;;;;;14.95;2.78;;;9.30;99.90;;;;;;4968340;28;20034;-75
2021/05/20 04:46:24;;;;;;;6.20;1.95;;;9.30;99.90;;;;;;4971096;28;20755;-75
2021/05/20 04:48:50;;;;;;;8.77;1.65;;;9.40;99.90;;;;;;4968236;28;20035;-75
2021/05/20 04:51:17;;;;;;;12.55;2.28;;;9.40;99.90;;;;;;4966605;28;20038;-75
2021/05/20 04:53:43;;;;;;;10.80;2.03;;;9.40;99.90;;;;;;4967750;28;20031;-75
2021/05/20 04:56:09;;;;;;;9.73;2.20;;;9.40;99.90;;;;;;4971428;28;20502;-75
2021/05/20 04:58:35;;;;;;;9.57;2.03;;;9.40;99.90;;;;;;4968370;28;20027;-76
2021/05/20 05:01:01;;;;;;;10.88;2.35;;;9.40;99.90;;;;;;4967279;28;20022;-75
2021/05/20 05:03:27;;;;;;;9.70;2.50;;;9.40;99.90;;;;;;4968885;28;20047;-75
2021/05/20 05:05:53;;;;;;;6.35;1.55;;;9.40;99.90;;;;;;4968939;28;20033;-75
2021/05/20 05:08:20;;;;;;;12.02;2.80;;;9.30;99.90;;;;;;4970259;28;20607;-75
2021/05/20 05:10:46;;;;;;;10.82;1.98;;;9.20;99.90;;;;;;4969272;28;20034;-76
2021/05/20 05:13:12;;;;;;;13.98;1.95;;;9.20;99.90;;;;;;4969566;28;20479;-76
2021/05/20 05:15:37;;;;;;;9.25;2.42;;;9.30;99.90;;;;;;4969352;28;20359;-76
2021/05/20 05:18:03;;;;;;;11.73;2.35;;;9.30;99.90;;;;;;4968500;28;20027;-76
2021/05/20 05:20:29;;;;;;;7.97;1.80;;;9.40;99.90;;;;;;4967413;28;20030;-75
2021/05/20 05:22:55;;;;;;;9.63;2.13;;;9.40;99.90;;;;;;4970052;28;20048;-76
2021/05/20 05:25:21;;;;;;;7.55;1.88;;;9.30;99.90;;;;;;4970243;28;20125;-76
2021/05/20 05:27:47;;;;;;;16.45;3.25;;;9.50;99.90;;;;;;4969903;28;20502;-76
2021/05/20 05:30:14;;;;;;;5.45;1.85;;;9.50;99.90;;;;;;4969972;28;20026;-75
2021/05/20 05:32:40;;;;;;;10.85;2.33;;;9.50;99.90;;;;;;4970508;28;20030;-75
2021/05/20 05:35:06;;;;;;;9.02;1.77;;;9.40;99.90;;;;;;4969690;28;20396;-75
2021/05/20 05:37:32;;;;;;;8.93;1.70;;;9.40;99.90;;;;;;4969190;28;20108;-76
2021/05/20 05:39:58;;;;;;;13.07;2.25;;;9.50;99.90;;;;;;4970934;28;20047;-76
2021/05/20 05:42:24;;;;;;;7.00;1.63;;;9.70;99.90;;;;;;4967444;28;20275;-76
2021/05/20 05:44:50;;;;;;;6.88;1.65;;;9.80;99.90;;;;;;4969686;28;20030;-76
2021/05/20 05:47:16;;;;;;;7.35;1.80;;;10.00;99.90;;;;;;4969582;28;20177;-76
2021/05/20 05:49:46;;;;;;;5.70;1.95;;;10.20;99.90;;;;;;4969234;28;20031;-76
2021/05/20 05:52:18;;;;;;;7.78;1.60;;;10.40;99.90;;;;;;4968081;28;20026;-76
2021/05/20 05:54:44;;;;;;;5.47;1.48;;;10.50;99.90;;;;;;4970096;28;20400;-76
2021/05/20 05:57:10;;;;;;;3.25;1.33;;;10.70;99.90;;;;;;4969246;28;20039;-76
2021/05/20 05:59:36;;;;;;;3.97;1.17;;;10.80;99.90;;;;;;4969749;28;20030;-76
2021/05/20 06:02:02;;;;;;;9.35;1.88;;;10.80;99.90;;;;;;4966989;28;20137;-76
2021/05/20 06:04:30;;;;;;;5.50;1.23;;;10.70;99.90;;;;;;4969028;28;20465;-76
2021/05/20 06:06:56;;;;;;;15.13;1.83;;;10.50;99.90;;;;;;4969360;28;20081;-76
2021/05/20 06:09:22;;;;;;;8.00;1.60;;;10.40;99.90;;;;;;4968485;28;20030;-76
2021/05/20 06:11:48;;;;;;;7.50;1.55;;;10.40;99.90;;;;;;4969601;28;20073;-76
2021/05/20 06:14:14;;;;;;;8.75;1.50;;;10.40;99.90;;;;;;4969222;28;20121;-76
2021/05/20 06:16:41;;;;;;;2.40;1.35;;;10.40;99.90;;;;;;4969557;28;20034;-76
2021/05/20 06:19:08;;;;;;;11.07;1.60;;;10.40;99.90;;;;;;4968444;28;20443;-76
2021/05/20 06:21:34;;;;;;;10.70;1.63;;;10.40;99.90;;;;;;4968337;28;20494;-76
2021/05/20 06:24:00;;;;;;;8.48;2.17;;;10.40;99.90;;;;;;4968610;28;20060;-76
2021/05/20 06:26:26;;;;;;;7.55;1.83;;;10.50;99.90;;;;;;4968526;28;20513;-76
2021/05/20 06:28:53;;;;;;;5.82;1.38;;;10.60;99.90;;;;;;4969809;28;20081;-77
2021/05/20 06:31:18;;;;;;;8.35;2.20;;;10.70;99.90;;;;;;4968833;28;20053;-76
2021/05/20 06:33:44;;;;;;;7.13;1.48;;;10.80;99.90;;;;;;4967489;28;20735;-76
2021/05/20 06:36:11;;;;;;;7.78;1.52;;;10.80;99.90;;;;;;4968417;28;20411;-76
2021/05/20 06:38:37;;;;;;;7.13;1.70;;;10.70;99.90;;;;;;4966257;28;20843;-76
2021/05/20 06:41:06;;;;;;;5.05;1.65;;;10.80;99.90;;;;;;4969851;28;20035;-76
2021/05/20 06:43:33;;;;;;;6.35;1.25;;;11.10;99.90;;;;;;4968735;28;20117;-76
2021/05/20 06:45:59;;;;;;;10.55;2.15;;;11.20;99.90;;;;;;4968206;28;20326;-76
2021/05/20 06:48:24;;;;;;;7.60;1.77;;;11.00;99.90;;;;;;4967415;28;20289;-76
2021/05/20 06:50:50;;;;;;;4.88;1.50;;;11.10;99.90;;;;;;4968133;28;20041;-76
2021/05/20 06:53:22;;;;;;;4.80;1.60;;;11.20;99.90;;;;;;4967823;28;20125;-76
2021/05/20 06:55:48;;;;;;;5.65;1.38;;;11.30;99.90;;;;;;4968129;28;20204;-76
2021/05/20 07:00:58;;;;;;;6.10;1.65;;;11.30;99.90;;;;;;4968439;28;20038;-76
2021/05/20 07:03:24;;;;;;;7.72;1.13;;;11.30;99.90;;;;;;4969195;28;20042;-76
2021/05/20 07:05:52;;;;;;;5.28;1.50;;;11.20;99.90;;;;;;4966822;28;20022;-76
2021/05/20 07:08:18;;;;;;;7.63;1.52;;;11.30;99.90;;;;;;4968365;28;20382;-76
2021/05/20 07:10:44;;;;;;;6.45;1.08;;;11.70;99.90;;;;;;4968243;28;20140;-76
2021/05/20 07:13:11;;;;;;;10.10;1.77;;;11.90;99.90;;;;;;4969095;28;20202;-76
2021/05/20 07:15:36;;;;;;;7.40;1.27;;;12.00;99.90;;;;;;4967745;28;20026;-76
2021/05/20 07:18:03;;;;;;;5.22;1.27;;;11.90;99.90;;;;;;4969608;28;20034;-76
2021/05/20 07:20:28;;;;;;;3.90;1.52;;;11.70;99.90;;;;;;4966418;28;20027;-76
2021/05/20 07:22:54;;;;;;;8.88;1.83;;;11.70;99.90;;;;;;4967985;28;20089;-76
2021/05/20 07:25:20;;;;;;;3.63;0.80;;;11.90;99.90;;;;;;4968535;28;20062;-77
2021/05/20 07:27:46;;;;;;;5.93;1.40;;;12.40;99.90;;;;;;4969680;28;20105;-77
2021/05/20 07:30:12;;;;;;;5.72;1.30;;;12.40;99.90;;;;;;4967550;28;20026;-77
2021/05/20 07:32:38;;;;;;;5.43;1.30;;;12.60;99.90;;;;;;4968617;28;20027;-77
2021/05/20 07:35:06;;;;;;;5.72;1.20;;;12.80;99.90;;;;;;4967680;28;20250;-77
2021/05/20 07:37:32;;;;;;;5.68;1.20;;;13.00;99.90;;;;;;4969567;28;20037;-76
2021/05/20 07:39:58;;;;;;;17.17;2.88;;;12.60;99.90;;;;;;4967447;28;20121;-76
2021/05/20 07:42:24;;;;;;;3.90;1.27;;;12.70;99.90;;;;;;4964416;28;20403;-77
2021/05/20 07:44:54;;;;;;;5.32;1.15;;;13.10;99.90;;;;;;4967414;28;20491;-76
2021/05/20 07:47:20;;;;;;;7.15;1.55;;;12.90;99.90;;;;;;4968113;28;20045;-77
2021/05/20 07:49:46;;;;;;;3.42;1.17;;;12.90;99.90;;;;;;4966846;28;20780;-76
2021/05/20 07:52:11;;;;;;;4.95;1.80;;;12.60;99.90;;;;;;4968221;28;20068;-77
2021/05/20 07:54:38;;;;;;;6.75;1.65;;;12.20;99.90;;;;;;4968354;28;20062;-76
2021/05/20 07:57:04;;;;;;;10.63;1.50;;;11.90;99.90;;;;;;4967999;28;20041;-76
2021/05/20 07:59:30;;;;;;;8.73;1.25;;;11.80;99.90;;;;;;4968066;28;20470;-76
2021/05/20 08:04:32;;;;;;;5.93;1.23;;;12.30;99.90;;;;;;4965931;28;20038;-76
2021/05/20 08:07:13;;;;;;;4.72;1.17;;;12.30;99.90;;;;;;4969430;28;20121;-77
2021/05/20 08:09:46;;;;;;;7.20;1.00;;;12.60;99.90;;;;;;4967548;28;20033;-77
2021/05/20 08:12:12;;;;;;;4.93;1.10;;;13.10;99.90;;;;;;4965642;28;20339;-77
2021/05/20 08:14:38;;;;;;;6.78;1.13;;;13.20;99.90;;;;;;4967711;28;20146;-77
2021/05/20 08:17:06;;;;;;;2.78;0.98;;;13.50;99.90;;;;;;4967815;28;20042;-77
2021/05/20 08:19:32;;;;;;;6.78;1.20;;;13.90;99.90;;;;;;4967000;28;20089;-77
2021/05/20 08:21:58;;;;;;;4.70;1.27;;;14.10;99.90;;;;;;4968294;28;20133;-77
2021/05/20 08:24:24;;;;;;;6.15;1.17;;;14.00;99.90;;;;;;4966235;28;20046;-77
2021/05/20 08:26:49;;;;;;;4.13;1.55;;;14.00;99.90;;;;;;4968799;28;20039;-77
2021/05/20 08:29:15;;;;;;;10.40;1.40;;;13.90;99.90;;;;;;4967779;28;20035;-77
2021/05/20 08:31:41;;;;;;;8.82;1.70;;;13.60;99.90;;;;;;4970062;28;20452;-77
2021/05/20 08:34:07;;;;;;;7.65;1.25;;;13.10;99.90;;;;;;4970939;28;20768;-77
2021/05/20 08:36:33;;;;;;;7.22;1.45;;;13.10;99.90;;;;;;4967876;28;20075;-77
2021/05/20 08:38:59;;;;;;;9.85;1.50;;;12.60;99.90;;;;;;4971136;28;20035;-77
2021/05/20 08:41:25;;;;;;;8.15;1.48;;;12.70;99.90;;;;;;5003227;28;20363;-77
2021/05/20 08:43:51;;;;;;;5.00;1.67;;;12.80;99.90;;;;;;4971799;28;20042;-77
2021/05/20 08:46:24;;;;;;;8.10;1.33;;;12.80;99.90;;;;;;4968527;28;20057;-77
2021/05/20 08:48:51;;;;;;;6.00;1.25;;;13.10;99.90;;;;;;4970996;28;20110;-76
2021/05/20 08:51:20;;;;;;;5.07;1.25;;;13.20;99.90;;;;;;4971213;28;20069;-77
2021/05/20 08:53:47;;;;;;;6.45;1.60;;;12.90;99.90;;;;;;4968905;28;20471;-77
2021/05/20 08:56:13;;;;;;;7.07;1.27;;;12.90;99.90;;;;;;4970146;28;20030;-77
2021/05/20 08:58:39;;;;;;;9.13;1.48;;;12.80;99.90;;;;;;4970810;28;20122;-77
2021/05/20 09:01:05;;;;;;;4.55;1.25;;;12.80;99.90;;;;;;4971306;28;20106;-77
2021/05/20 09:03:31;;;;;;;9.93;1.88;;;13.40;99.90;;;;;;4968956;28;20065;-77
2021/05/20 09:06:04;;;;;;;6.45;1.60;;;13.60;99.90;;;;;;4971738;28;20109;-78
2021/05/20 09:08:34;;;;;;;3.15;1.08;;;14.00;99.90;;;;;;4969527;28;20089;-77
2021/05/20 09:11:01;;;;;;;4.75;1.20;;;14.20;99.90;;;;;;4968977;28;20027;-77
2021/05/20 09:13:36;;;;;;;6.15;1.35;;;14.10;99.90;;;;;;4969255;28;20516;-78
2021/05/20 09:16:13;;;;;;;4.63;1.00;;;14.10;99.90;;;;;;4971421;28;20113;-78
2021/05/20 09:18:41;;;;;;;6.25;1.15;;;14.30;99.90;;;;;;4970538;28;20045;-78
2021/05/20 09:21:08;;;;;;;6.53;1.42;;;14.00;99.90;;;;;;4971537;28;20456;-78
2021/05/20 09:23:45;;;;;;;6.38;1.50;;;14.00;99.90;;;;;;4969238;28;20124;-78
2021/05/20 09:26:11;;;;;;;3.65;1.10;;;14.10;99.90;;;;;;4967897;28;20033;-78
2021/05/20 09:28:43;;;;;;;11.07;1.75;;;14.30;99.90;;;;;;4969083;28;20498;-77
2021/05/20 09:31:33;;;;;;;3.20;1.42;;;14.50;99.90;;;;;;4969747;28;20030;-78
2021/05/20 09:33:58;;;;;;;5.68;1.83;;;14.30;99.90;;;;;;4971770;28;20027;-78
2021/05/20 09:36:24;;;;;;;9.15;1.55;;;14.40;99.90;;;;;;4970220;28;20042;-77
2021/05/20 09:39:09;;;;;;;10.25;1.35;;;14.10;99.90;;;;;;4969552;28;20113;-78
2021/05/20 09:41:35;;;;;;;7.38;1.65;;;14.10;99.90;;;;;;4968725;28;20699;-77
2021/05/20 09:44:00;;;;;;;3.83;0.75;;;13.80;99.90;;;;;;4969026;28;20026;-78
2021/05/20 09:46:42;;;;;;;6.10;1.30;;;13.80;99.90;;;;;;4969150;28;20106;-78
2021/05/20 09:49:08;;;;;;;6.03;1.35;;;14.20;99.90;;;;;;4969645;28;20023;-77
2021/05/20 09:51:33;;;;;;;7.25;1.67;;;14.20;99.90;;;;;;4970211;28;20501;-78
2021/05/20 09:53:59;;;;;;;6.25;1.55;;;14.20;99.90;;;;;;4969749;28;20403;-77
2021/05/20 09:56:39;;;;;;;6.97;1.38;;;14.30;99.90;;;;;;4970561;28;20417;-77
2021/05/20 09:59:05;;;;;;;5.93;1.42;;;14.90;99.90;;;;;;4969164;28;20046;-78
2021/05/20 10:01:31;;;;;;;3.53;1.40;;;15.20;99.90;;;;;;4971243;28;20374;-78
2021/05/20 10:03:57;;;;;;;7.90;1.40;;;15.40;99.90;;;;;;4971993;28;20030;-78
2021/05/20 10:06:43;;;;;;;7.00;1.23;;;15.20;99.90;;;;;;4971364;28;20409;-78
2021/05/20 10:09:13;;;;;;;7.95;1.70;;;15.50;99.90;;;;;;4970946;28;20031;-78
2021/05/20 10:11:42;;;;;;;8.20;1.80;;;15.40;99.90;;;;;;4971454;28;20326;-79
2021/05/20 10:14:08;;;;;;;3.58;1.20;;;15.70;99.90;;;;;;4971866;28;20061;-79
2021/05/20 10:16:38;;;;;;;7.13;1.10;;;15.90;99.90;;;;;;4987435;28;20339;-78
2021/05/20 10:19:06;;;;;;;6.40;1.65;;;15.80;99.90;;;;;;4972565;28;20387;-78
2021/05/20 10:21:32;;;;;;;5.00;1.38;;;15.30;99.90;;;;;;4972700;28;20057;-78
2021/05/20 10:23:58;;;;;;;4.18;1.20;;;15.50;99.90;;;;;;4973972;28;20055;-78
2021/05/20 10:26:24;;;;;;;9.73;2.25;;;15.70;99.90;;;;;;4973837;28;20030;-79
2021/05/20 10:28:51;;;;;;;7.63;1.10;;;15.40;99.90;;;;;;4971522;28;20137;-79
2021/05/20 10:31:17;;;;;;;9.00;1.98;;;15.10;99.90;;;;;;4972117;28;20034;-78
2021/05/20 10:33:44;;;;;;;7.95;1.70;;;14.90;99.90;;;;;;4973077;28;20049;-78
2021/05/20 10:36:24;;;;;;;3.72;1.05;;;15.20;99.90;;;;;;4969968;28;20030;-78
2021/05/20 10:38:50;;;;;;;3.10;1.40;;;14.80;99.90;;;;;;4972371;28;20023;-79
2021/05/20 10:41:22;;;;;;;8.48;1.33;;;15.10;99.90;;;;;;4972920;28;20051;-78
2021/05/20 10:43:50;;;;;;;4.55;0.93;;;15.10;99.90;;;;;;4971552;28;20543;-78
2021/05/20 10:46:18;;;;;;;4.25;1.60;;;14.60;99.90;;;;;;4972355;28;20435;-78
2021/05/20 10:49:02;;;;;;;6.32;1.42;;;14.30;99.90;;;;;;4971472;28;20045;-78
2021/05/20 10:51:32;;;;;;;3.83;1.55;;;13.60;99.90;;;;;;4970539;28;20030;-77
2021/05/20 10:54:07;;;;;;;12.20;2.85;;;12.80;99.90;;;;;;4969504;28;20274;-77
2021/05/20 10:56:33;;;;;;;3.25;1.10;;;12.70;99.90;;;;;;4968836;28;20030;-77
2021/05/20 10:59:02;;;;;;;6.60;1.23;;;12.60;99.90;;;;;;4970713;28;20026;-77
2021/05/20 11:01:30;;;;;;;5.53;1.48;;;12.70;99.90;;;;;;4970149;28;20615;-77
2021/05/20 11:03:59;;;;;;;8.52;1.40;;;13.30;99.90;;;;;;4968062;28;20104;-78
2021/05/20 11:06:46;;;;;;;3.65;1.10;;;14.00;99.90;;;;;;4971036;28;20076;-77
2021/05/20 11:09:14;;;;;;;7.60;1.73;;;13.90;99.90;;;;;;4969236;28;20371;-77
2021/05/20 11:11:40;;;;;;;4.93;1.02;;;13.40;99.90;;;;;;4970445;28;20037;-77
2021/05/20 11:14:25;;;;;;;5.95;1.40;;;13.20;99.90;;;;;;4970320;28;20450;-78
2021/05/20 11:16:52;;;;;;;6.07;1.27;;;13.40;99.90;;;;;;4968836;28;20096;-77
2021/05/20 11:19:22;;;;;;;7.30;1.30;;;14.20;99.90;;;;;;4969286;28;20505;-77
2021/05/20 11:22:03;;;;;;;3.55;1.48;;;13.80;99.90;;;;;;4970625;28;20044;-77
2021/05/20 11:24:33;;;;;;;7.68;1.85;;;13.40;99.90;;;;;;4969364;28;20151;-77
2021/05/20 11:27:00;;;;;;;;;;;13.10;99.90;;;;;;4968905;28;20132;-77
2021/05/20 11:29:28;;;;;;;5.35;1.20;;;13.20;99.90;;;;;;4968868;28;19914;-77
2021/05/20 11:32:00;;;;;;;6.28;1.35;;;13.90;99.90;;;;;;4969418;28;20034;-77
2021/05/20 11:37:00;;;;;;;8.07;1.85;;;13.80;99.90;;;;;;4968192;28;20054;-76
2021/05/20 11:39:27;;;;;;;3.67;1.00;;;13.60;99.90;;;;;;4969767;28;20035;-77
2021/05/20 11:41:53;;;;;;;4.15;1.48;;;13.50;99.90;;;;;;4968631;28;20126;-77
2021/05/20 11:44:24;;;;;;;5.25;1.58;;;13.30;99.90;;;;;;4969409;28;20407;-77
2021/05/20 11:47:12;;;;;;;4.38;1.15;;;13.00;99.90;;;;;;4966853;28;20093;-77
2021/05/20 11:49:38;;;;;;;7.18;1.20;;;13.30;99.90;;;;;;4968087;28;20724;-78
2021/05/20 11:52:08;;;;;;;6.93;1.60;;;14.10;99.90;;;;;;4969388;28;20065;-77
2021/05/20 11:54:39;;;;;;;5.07;1.35;;;14.60;99.90;;;;;;4967896;28;20100;-77
2021/05/20 11:57:07;;;;;;;8.90;1.98;;;14.40;99.90;;;;;;4969595;28;20049;-76
2021/05/20 11:59:37;;;;;;;9.63;1.88;;;14.70;99.90;;;;;;4968937;28;20030;-77
2021/05/20 12:02:08;;;;;;;6.80;1.60;;;14.90;99.90;;;;;;4969323;28;20046;-77
2021/05/20 12:04:34;;;;;;;5.22;1.30;;;14.90;99.90;;;;;;4967775;28;20380;-77
2021/05/20 12:07:01;;;;;;;7.68;1.60;;;14.20;99.90;;;;;;4969867;28;20073;-77
2021/05/20 12:09:28;;;;;;;8.43;2.25;;;13.60;99.90;;;;;;4974149;28;20023;-77
2021/05/20 12:11:54;;;;;;;4.13;1.52;;;13.50;99.90;;;;;;4972506;28;20039;-78
2021/05/20 12:14:35;;;;;;;8.18;1.17;;;14.20;99.90;;;;;;4972521;28;20058;-77
2021/05/20 12:17:07;;;;;;;8.98;1.52;;;14.60;99.90;;;;;;4973621;28;20034;-77
2021/05/20 12:19:38;;;;;;;3.35;1.17;;;14.70;99.90;;;;;;4974889;28;20038;-78
2021/05/20 12:22:22;;;;;;;6.57;1.42;;;14.20;99.90;;;;;;4976287;28;20049;-76
2021/05/20 12:24:50;;;;;;;7.88;2.05;;;13.70;99.90;;;;;;4970584;28;20062;-77
2021/05/20 12:27:20;;;;;;;5.30;1.23;;;13.50;99.90;;;;;;4970807;28;20035;-77
2021/05/20 12:30:11;;;;;;;9.30;1.42;;;13.40;99.90;;;;;;4971832;28;20604;-77
2021/05/20 12:32:40;;;;;;;5.90;1.42;;;13.10;99.90;;;;;;4971462;28;20394;-77
2021/05/20 12:35:09;;;;;;;8.88;1.52;;;13.10;99.90;;;;;;4968885;28;20036;-77
2021/05/20 12:38:13;;;;;;;9.98;1.45;;;13.40;99.90;;;;;;4971151;28;20512;-76
2021/05/20 12:40:52;;;;;;;8.43;1.88;;;14.10;99.90;;;;;;4969928;28;20154;-76
2021/05/20 12:43:20;;;;;;;5.57;1.45;;;13.80;99.90;;;;;;4970601;28;20042;-77
2021/05/20 12:45:57;;;;;;;4.10;1.35;;;13.70;99.90;;;;;;4971741;28;20501;-76
2021/05/20 12:48:25;;;;;;;7.90;1.40;;;13.80;99.90;;;;;;4970532;28;20044;-76
2021/05/20 12:50:53;;;;;;;7.22;1.33;;;13.80;99.90;;;;;;4970498;28;20038;-76
2021/05/20 12:53:35;;;;;;;7.88;1.58;;;14.20;99.90;;;;;;4970369;28;20038;-77
2021/05/20 12:56:04;;;;;;;6.07;1.30;;;14.20;99.90;;;;;;4970234;28;20031;-77
2021/05/20 12:58:49;;;;;;;4.68;1.92;;;14.00;99.90;;;;;;4969782;28;20034;-76
2021/05/20 13:01:15;;;;;;;8.93;1.30;;;14.20;99.90;;;;;;4970465;28;20043;-76